sensor_id;sensor_type;location;lat;lon;timestamp;P1;durP1;ratioP1;P2;durP2;ratioP2
23250;SDS011;11794;49.730;10.088;2023-05-29T00:01:26;0.98;;;0.20;;
23250;SDS011;11794;49.730;10.088;2023-05-29T00:03:51;1.10;;;0.30;;
23250;SDS011;11794;49.730;10.088;2023-05-29T00:06:17;1.05;;;0.30;;
23250;SDS011;11794;49.730;10.088;2023-05-29T00:08:44;2.25;;;0.40;;
23250;SDS011;11794;49.730;10.088;2023-05-29T00:11:10;1.23;;;0.30;;
23250;SDS011;11794;49.730;10.088;2023-05-29T00:13:35;2.72;;;0.40;;
23250;SDS011;11794;49.730;10.088;2023-05-29T00:16:01;1.43;;;0.30;;
23250;SDS011;11794;49.730;10.088;2023-05-29T00:18:27;1.77;;;0.50;;
23250;SDS011;11794;49.730;10.088;2023-05-29T00:20:52;2.23;;;0.63;;
23250;SDS011;11794;49.730;10.088;2023-05-29T00:23:18;3.67;;;0.40;;
23250;SDS011;11794;49.730;10.088;2023-05-29T00:25:44;1.30;;;0.30;;
23250;SDS011;11794;49.730;10.088;2023-05-29T00:28:10;1.97;;;0.37;;
23250;SDS011;11794;49.730;10.088;2023-05-29T00:30:37;0.50;;;0.10;;
23250;SDS011;11794;49.730;10.088;2023-05-29T00:33:03;0.73;;;0.20;;
23250;SDS011;11794;49.730;10.088;2023-05-29T00:35:28;1.50;;;0.40;;
23250;SDS011;11794;49.730;10.088;2023-05-29T00:37:54;1.73;;;0.50;;
23250;SDS011;11794;49.730;10.088;2023-05-29T00:40:20;1.00;;;0.30;;
23250;SDS011;11794;49.730;10.088;2023-05-29T00:42:45;3.23;;;0.60;;
23250;SDS011;11794;49.730;10.088;2023-05-29T00:45:11;0.70;;;0.20;;
23250;SDS011;11794;49.730;10.088;2023-05-29T00:47:38;1.50;;;0.45;;
23250;SDS011;11794;49.730;10.088;2023-05-29T00:50:05;1.52;;;0.32;;
23250;SDS011;11794;49.730;10.088;2023-05-29T00:52:31;1.02;;;0.30;;
23250;SDS011;11794;49.730;10.088;2023-05-29T00:54:57;0.85;;;0.22;;
23250;SDS011;11794;49.730;10.088;2023-05-29T00:57:25;4.00;;;0.50;;
23250;SDS011;11794;49.730;10.088;2023-05-29T00:59:51;1.13;;;0.30;;
23250;SDS011;11794;49.730;10.088;2023-05-29T01:02:17;1.50;;;0.40;;
23250;SDS011;11794;49.730;10.088;2023-05-29T01:04:44;3.15;;;0.47;;
23250;SDS011;11794;49.730;10.088;2023-05-29T01:07:10;1.52;;;0.38;;
23250;SDS011;11794;49.730;10.088;2023-05-29T01:09:35;0.57;;;0.20;;
23250;SDS011;11794;49.730;10.088;2023-05-29T01:17:24;1.00;;;0.30;;
23250;SDS011;11794;49.730;10.088;2023-05-29T01:28:50;0.85;;;0.20;;
23250;SDS011;11794;49.730;10.088;2023-05-29T01:31:19;1.07;;;0.37;;
23250;SDS011;11794;49.730;10.088;2023-05-29T01:33:58;1.03;;;0.20;;
23250;SDS011;11794;49.730;10.088;2023-05-29T01:36:25;1.70;;;0.50;;
23250;SDS011;11794;49.730;10.088;2023-05-29T01:38:51;1.67;;;0.40;;
23250;SDS011;11794;49.730;10.088;2023-05-29T01:41:18;1.88;;;0.63;;
23250;SDS011;11794;49.730;10.088;2023-05-29T01:43:46;2.25;;;0.50;;
23250;SDS011;11794;49.730;10.088;2023-05-29T01:46:12;0.98;;;0.30;;
23250;SDS011;11794;49.730;10.088;2023-05-29T01:48:40;1.30;;;0.53;;
23250;SDS011;11794;49.730;10.088;2023-05-29T01:51:06;1.37;;;0.47;;
23250;SDS011;11794;49.730;10.088;2023-05-29T01:53:33;1.33;;;0.30;;
23250;SDS011;11794;49.730;10.088;2023-05-29T01:55:58;2.08;;;0.55;;
23250;SDS011;11794;49.730;10.088;2023-05-29T01:58:24;0.77;;;0.20;;
23250;SDS011;11794;49.730;10.088;2023-05-29T02:00:51;2.22;;;0.32;;
23250;SDS011;11794;49.730;10.088;2023-05-29T02:03:17;1.52;;;0.40;;
23250;SDS011;11794;49.730;10.088;2023-05-29T02:05:42;1.92;;;0.57;;
23250;SDS011;11794;49.730;10.088;2023-05-29T02:08:08;1.13;;;0.37;;
23250;SDS011;11794;49.730;10.088;2023-05-29T02:10:33;1.77;;;0.50;;
23250;SDS011;11794;49.730;10.088;2023-05-29T02:12:59;1.33;;;0.30;;
23250;SDS011;11794;49.730;10.088;2023-05-29T02:15:24;0.43;;;0.10;;
23250;SDS011;11794;49.730;10.088;2023-05-29T02:17:50;1.47;;;0.33;;
23250;SDS011;11794;49.730;10.088;2023-05-29T02:20:16;1.85;;;0.50;;
23250;SDS011;11794;49.730;10.088;2023-05-29T02:22:42;0.82;;;0.10;;
23250;SDS011;11794;49.730;10.088;2023-05-29T02:25:08;1.53;;;0.70;;
23250;SDS011;11794;49.730;10.088;2023-05-29T02:27:33;1.40;;;0.60;;
23250;SDS011;11794;49.730;10.088;2023-05-29T02:29:59;0.67;;;0.17;;
23250;SDS011;11794;49.730;10.088;2023-05-29T02:32:24;2.30;;;0.53;;
23250;SDS011;11794;49.730;10.088;2023-05-29T02:34:52;0.88;;;0.32;;
23250;SDS011;11794;49.730;10.088;2023-05-29T02:37:18;1.23;;;0.20;;
23250;SDS011;11794;49.730;10.088;2023-05-29T02:39:43;1.93;;;0.53;;
23250;SDS011;11794;49.730;10.088;2023-05-29T02:42:09;2.47;;;0.70;;
23250;SDS011;11794;49.730;10.088;2023-05-29T02:44:34;3.50;;;0.33;;
23250;SDS011;11794;49.730;10.088;2023-05-29T02:47:00;1.17;;;0.30;;
23250;SDS011;11794;49.730;10.088;2023-05-29T02:49:25;2.53;;;0.50;;
23250;SDS011;11794;49.730;10.088;2023-05-29T02:51:51;2.57;;;0.57;;
23250;SDS011;11794;49.730;10.088;2023-05-29T02:54:21;1.60;;;0.30;;
23250;SDS011;11794;49.730;10.088;2023-05-29T02:56:48;2.05;;;0.65;;
23250;SDS011;11794;49.730;10.088;2023-05-29T02:59:13;1.37;;;0.33;;
23250;SDS011;11794;49.730;10.088;2023-05-29T03:01:39;3.20;;;0.33;;
23250;SDS011;11794;49.730;10.088;2023-05-29T03:04:04;1.92;;;0.30;;
23250;SDS011;11794;49.730;10.088;2023-05-29T03:06:30;1.27;;;0.43;;
23250;SDS011;11794;49.730;10.088;2023-05-29T03:08:57;0.70;;;0.20;;
23250;SDS011;11794;49.730;10.088;2023-05-29T03:11:24;2.25;;;0.55;;
23250;SDS011;11794;49.730;10.088;2023-05-29T03:13:50;1.93;;;0.70;;
23250;SDS011;11794;49.730;10.088;2023-05-29T03:16:15;1.60;;;0.60;;
23250;SDS011;11794;49.730;10.088;2023-05-29T03:18:41;1.00;;;0.40;;
23250;SDS011;11794;49.730;10.088;2023-05-29T03:21:07;0.83;;;0.27;;
23250;SDS011;11794;49.730;10.088;2023-05-29T03:23:32;1.37;;;0.33;;
23250;SDS011;11794;49.730;10.088;2023-05-29T03:25:58;1.15;;;0.20;;
23250;SDS011;11794;49.730;10.088;2023-05-29T03:28:23;0.70;;;0.20;;
23250;SDS011;11794;49.730;10.088;2023-05-29T03:30:49;1.00;;;0.30;;
23250;SDS011;11794;49.730;10.088;2023-05-29T03:33:14;2.33;;;0.20;;
23250;SDS011;11794;49.730;10.088;2023-05-29T03:35:40;0.90;;;0.20;;
23250;SDS011;11794;49.730;10.088;2023-05-29T03:38:06;1.30;;;0.45;;
23250;SDS011;11794;49.730;10.088;2023-05-29T03:40:32;0.85;;;0.22;;
23250;SDS011;11794;49.730;10.088;2023-05-29T03:42:57;0.43;;;0.13;;
23250;SDS011;11794;49.730;10.088;2023-05-29T03:45:23;1.97;;;0.37;;
23250;SDS011;11794;49.730;10.088;2023-05-29T03:47:48;1.83;;;0.35;;
23250;SDS011;11794;49.730;10.088;2023-05-29T03:50:14;1.17;;;0.20;;
23250;SDS011;11794;49.730;10.088;2023-05-29T03:52:41;1.00;;;0.40;;
23250;SDS011;11794;49.730;10.088;2023-05-29T03:55:08;1.08;;;0.30;;
23250;SDS011;11794;49.730;10.088;2023-05-29T03:57:38;1.02;;;0.30;;
23250;SDS011;11794;49.730;10.088;2023-05-29T04:00:06;1.85;;;0.30;;
23250;SDS011;11794;49.730;10.088;2023-05-29T04:02:36;1.00;;;0.23;;
23250;SDS011;11794;49.730;10.088;2023-05-29T04:05:03;0.97;;;0.53;;
23250;SDS011;11794;49.730;10.088;2023-05-29T04:07:29;1.17;;;0.30;;
23250;SDS011;11794;49.730;10.088;2023-05-29T04:09:55;0.70;;;0.28;;
23250;SDS011;11794;49.730;10.088;2023-05-29T04:12:20;0.37;;;0.10;;
23250;SDS011;11794;49.730;10.088;2023-05-29T04:14:46;1.10;;;0.30;;
23250;SDS011;11794;49.730;10.088;2023-05-29T04:17:11;0.95;;;0.35;;
23250;SDS011;11794;49.730;10.088;2023-05-29T04:19:36;0.97;;;0.30;;
23250;SDS011;11794;49.730;10.088;2023-05-29T04:22:02;1.23;;;0.33;;
23250;SDS011;11794;49.730;10.088;2023-05-29T04:24:27;1.17;;;0.20;;
23250;SDS011;11794;49.730;10.088;2023-05-29T04:26:53;1.23;;;0.47;;
23250;SDS011;11794;49.730;10.088;2023-05-29T04:29:18;1.20;;;0.20;;
23250;SDS011;11794;49.730;10.088;2023-05-29T04:31:44;1.05;;;0.32;;
23250;SDS011;11794;49.730;10.088;2023-05-29T04:34:10;1.17;;;0.30;;
23250;SDS011;11794;49.730;10.088;2023-05-29T04:36:35;1.75;;;0.50;;
23250;SDS011;11794;49.730;10.088;2023-05-29T04:39:06;2.07;;;0.43;;
23250;SDS011;11794;49.730;10.088;2023-05-29T04:41:32;2.85;;;0.30;;
23250;SDS011;11794;49.730;10.088;2023-05-29T04:43:58;1.02;;;0.30;;
23250;SDS011;11794;49.730;10.088;2023-05-29T04:46:24;1.33;;;0.30;;
23250;SDS011;11794;49.730;10.088;2023-05-29T04:48:50;0.75;;;0.25;;
23250;SDS011;11794;49.730;10.088;2023-05-29T04:51:21;1.35;;;0.40;;
23250;SDS011;11794;49.730;10.088;2023-05-29T04:53:47;1.42;;;0.38;;
23250;SDS011;11794;49.730;10.088;2023-05-29T04:56:14;1.67;;;0.30;;
23250;SDS011;11794;49.730;10.088;2023-05-29T04:58:40;1.50;;;0.50;;
23250;SDS011;11794;49.730;10.088;2023-05-29T05:01:06;1.45;;;0.65;;
23250;SDS011;11794;49.730;10.088;2023-05-29T05:03:32;0.85;;;0.38;;
23250;SDS011;11794;49.730;10.088;2023-05-29T05:05:59;0.85;;;0.22;;
23250;SDS011;11794;49.730;10.088;2023-05-29T05:08:25;1.53;;;0.40;;
23250;SDS011;11794;49.730;10.088;2023-05-29T05:10:50;0.93;;;0.17;;
23250;SDS011;11794;49.730;10.088;2023-05-29T05:13:16;1.10;;;0.30;;
23250;SDS011;11794;49.730;10.088;2023-05-29T05:15:41;1.13;;;0.30;;
23250;SDS011;11794;49.730;10.088;2023-05-29T05:18:07;1.27;;;0.30;;
23250;SDS011;11794;49.730;10.088;2023-05-29T05:20:32;2.00;;;0.57;;
23250;SDS011;11794;49.730;10.088;2023-05-29T05:22:57;1.03;;;0.20;;
23250;SDS011;11794;49.730;10.088;2023-05-29T05:25:24;1.17;;;0.30;;
23250;SDS011;11794;49.730;10.088;2023-05-29T05:27:50;1.55;;;0.50;;
23250;SDS011;11794;49.730;10.088;2023-05-29T05:30:15;0.97;;;0.20;;
23250;SDS011;11794;49.730;10.088;2023-05-29T05:32:41;1.73;;;0.40;;
23250;SDS011;11794;49.730;10.088;2023-05-29T05:35:07;1.00;;;0.20;;
23250;SDS011;11794;49.730;10.088;2023-05-29T05:37:35;1.05;;;0.22;;
23250;SDS011;11794;49.730;10.088;2023-05-29T05:40:00;2.40;;;0.53;;
23250;SDS011;11794;49.730;10.088;2023-05-29T05:42:26;1.10;;;0.37;;
23250;SDS011;11794;49.730;10.088;2023-05-29T05:44:51;1.73;;;0.40;;
23250;SDS011;11794;49.730;10.088;2023-05-29T05:47:17;1.17;;;0.50;;
23250;SDS011;11794;49.730;10.088;2023-05-29T05:49:43;1.47;;;0.37;;
23250;SDS011;11794;49.730;10.088;2023-05-29T05:52:08;2.23;;;0.50;;
23250;SDS011;11794;49.730;10.088;2023-05-29T05:54:34;0.80;;;0.28;;
23250;SDS011;11794;49.730;10.088;2023-05-29T05:57:00;1.57;;;0.57;;
23250;SDS011;11794;49.730;10.088;2023-05-29T05:59:25;3.45;;;0.50;;
23250;SDS011;11794;49.730;10.088;2023-05-29T06:01:51;6.60;;;0.63;;
23250;SDS011;11794;49.730;10.088;2023-05-29T06:04:17;1.80;;;0.30;;
23250;SDS011;11794;49.730;10.088;2023-05-29T06:06:43;2.10;;;0.23;;
23250;SDS011;11794;49.730;10.088;2023-05-29T06:09:09;1.60;;;0.53;;
23250;SDS011;11794;49.730;10.088;2023-05-29T06:11:36;2.30;;;0.50;;
23250;SDS011;11794;49.730;10.088;2023-05-29T06:14:02;1.90;;;0.32;;
23250;SDS011;11794;49.730;10.088;2023-05-29T06:16:28;3.47;;;0.47;;
23250;SDS011;11794;49.730;10.088;2023-05-29T06:18:54;1.90;;;0.50;;
23250;SDS011;11794;49.730;10.088;2023-05-29T06:21:20;2.00;;;0.40;;
23250;SDS011;11794;49.730;10.088;2023-05-29T06:23:45;2.70;;;0.50;;
23250;SDS011;11794;49.730;10.088;2023-05-29T06:26:11;1.60;;;0.50;;
23250;SDS011;11794;49.730;10.088;2023-05-29T06:28:37;3.00;;;0.87;;
23250;SDS011;11794;49.730;10.088;2023-05-29T06:31:03;2.97;;;0.80;;
23250;SDS011;11794;49.730;10.088;2023-05-29T06:33:28;1.73;;;0.40;;
23250;SDS011;11794;49.730;10.088;2023-05-29T06:35:54;2.97;;;0.30;;
23250;SDS011;11794;49.730;10.088;2023-05-29T06:38:20;5.63;;;0.68;;
23250;SDS011;11794;49.730;10.088;2023-05-29T06:40:46;1.33;;;0.37;;
23250;SDS011;11794;49.730;10.088;2023-05-29T06:43:11;2.63;;;0.50;;
23250;SDS011;11794;49.730;10.088;2023-05-29T06:45:37;2.97;;;1.00;;
23250;SDS011;11794;49.730;10.088;2023-05-29T06:48:03;1.70;;;0.50;;
23250;SDS011;11794;49.730;10.088;2023-05-29T06:50:28;1.33;;;0.33;;
23250;SDS011;11794;49.730;10.088;2023-05-29T06:52:55;2.77;;;0.60;;
23250;SDS011;11794;49.730;10.088;2023-05-29T06:55:20;1.80;;;0.30;;
23250;SDS011;11794;49.730;10.088;2023-05-29T06:57:46;1.40;;;0.30;;
23250;SDS011;11794;49.730;10.088;2023-05-29T07:00:11;0.97;;;0.30;;
23250;SDS011;11794;49.730;10.088;2023-05-29T07:02:37;7.13;;;0.50;;
23250;SDS011;11794;49.730;10.088;2023-05-29T07:05:03;3.95;;;0.75;;
23250;SDS011;11794;49.730;10.088;2023-05-29T07:07:29;2.22;;;0.57;;
23250;SDS011;11794;49.730;10.088;2023-05-29T07:09:54;2.43;;;0.60;;
23250;SDS011;11794;49.730;10.088;2023-05-29T07:12:21;1.50;;;0.33;;
23250;SDS011;11794;49.730;10.088;2023-05-29T07:14:48;1.98;;;0.28;;
23250;SDS011;11794;49.730;10.088;2023-05-29T07:17:14;2.35;;;0.47;;
23250;SDS011;11794;49.730;10.088;2023-05-29T07:19:40;2.55;;;0.50;;
23250;SDS011;11794;49.730;10.088;2023-05-29T07:22:06;0.85;;;0.20;;
23250;SDS011;11794;49.730;10.088;2023-05-29T07:24:31;1.27;;;0.30;;
23250;SDS011;11794;49.730;10.088;2023-05-29T07:26:57;2.97;;;1.00;;
23250;SDS011;11794;49.730;10.088;2023-05-29T07:29:23;1.73;;;0.40;;
23250;SDS011;11794;49.730;10.088;2023-05-29T07:31:49;1.60;;;0.40;;
23250;SDS011;11794;49.730;10.088;2023-05-29T07:34:15;3.25;;;1.25;;
23250;SDS011;11794;49.730;10.088;2023-05-29T07:36:57;2.42;;;0.60;;
23250;SDS011;11794;49.730;10.088;2023-05-29T07:39:23;3.60;;;0.60;;
23250;SDS011;11794;49.730;10.088;2023-05-29T07:41:49;2.10;;;0.50;;
23250;SDS011;11794;49.730;10.088;2023-05-29T07:44:14;2.33;;;0.77;;
23250;SDS011;11794;49.730;10.088;2023-05-29T07:46:40;3.97;;;0.80;;
23250;SDS011;11794;49.730;10.088;2023-05-29T07:49:05;2.67;;;0.90;;
23250;SDS011;11794;49.730;10.088;2023-05-29T07:51:31;3.53;;;0.90;;
23250;SDS011;11794;49.730;10.088;2023-05-29T07:53:57;3.35;;;0.63;;
23250;SDS011;11794;49.730;10.088;2023-05-29T07:56:22;3.37;;;0.73;;
23250;SDS011;11794;49.730;10.088;2023-05-29T07:58:48;2.80;;;0.80;;
23250;SDS011;11794;49.730;10.088;2023-05-29T08:01:13;3.13;;;0.68;;
23250;SDS011;11794;49.730;10.088;2023-05-29T08:03:41;2.63;;;0.70;;
23250;SDS011;11794;49.730;10.088;2023-05-29T08:06:07;3.47;;;0.75;;
23250;SDS011;11794;49.730;10.088;2023-05-29T08:08:32;5.90;;;1.10;;
23250;SDS011;11794;49.730;10.088;2023-05-29T08:10:58;2.53;;;0.80;;
23250;SDS011;11794;49.730;10.088;2023-05-29T08:13:23;2.63;;;1.00;;
23250;SDS011;11794;49.730;10.088;2023-05-29T08:15:49;3.53;;;1.00;;
23250;SDS011;11794;49.730;10.088;2023-05-29T08:18:14;2.88;;;1.00;;
23250;SDS011;11794;49.730;10.088;2023-05-29T08:20:40;3.60;;;1.00;;
23250;SDS011;11794;49.730;10.088;2023-05-29T08:23:05;3.90;;;1.23;;
23250;SDS011;11794;49.730;10.088;2023-05-29T08:25:31;4.50;;;1.00;;
23250;SDS011;11794;49.730;10.088;2023-05-29T08:27:57;2.70;;;1.00;;
23250;SDS011;11794;49.730;10.088;2023-05-29T08:30:22;2.65;;;0.70;;
23250;SDS011;11794;49.730;10.088;2023-05-29T08:32:48;2.27;;;0.67;;
23250;SDS011;11794;49.730;10.088;2023-05-29T08:35:15;3.90;;;0.95;;
23250;SDS011;11794;49.730;10.088;2023-05-29T08:37:41;2.88;;;0.88;;
23250;SDS011;11794;49.730;10.088;2023-05-29T08:40:06;2.80;;;1.00;;
23250;SDS011;11794;49.730;10.088;2023-05-29T08:42:36;4.15;;;1.10;;
23250;SDS011;11794;49.730;10.088;2023-05-29T08:45:06;2.67;;;0.80;;
23250;SDS011;11794;49.730;10.088;2023-05-29T08:47:35;2.65;;;0.88;;
23250;SDS011;11794;49.730;10.088;2023-05-29T08:50:04;4.63;;;0.90;;
23250;SDS011;11794;49.730;10.088;2023-05-29T08:52:34;2.90;;;0.85;;
23250;SDS011;11794;49.730;10.088;2023-05-29T08:55:03;4.43;;;1.33;;
23250;SDS011;11794;49.730;10.088;2023-05-29T08:57:29;3.13;;;0.93;;
23250;SDS011;11794;49.730;10.088;2023-05-29T08:59:56;5.13;;;1.53;;
23250;SDS011;11794;49.730;10.088;2023-05-29T09:02:22;2.95;;;0.77;;
23250;SDS011;11794;49.730;10.088;2023-05-29T09:04:47;3.90;;;1.13;;
23250;SDS011;11794;49.730;10.088;2023-05-29T09:07:21;3.72;;;1.27;;
23250;SDS011;11794;49.730;10.088;2023-05-29T09:09:47;4.10;;;0.90;;
23250;SDS011;11794;49.730;10.088;2023-05-29T09:12:13;4.00;;;1.50;;
23250;SDS011;11794;49.730;10.088;2023-05-29T09:14:42;3.33;;;0.90;;
23250;SDS011;11794;49.730;10.088;2023-05-29T09:17:09;5.05;;;1.33;;
23250;SDS011;11794;49.730;10.088;2023-05-29T09:19:36;2.58;;;0.88;;
23250;SDS011;11794;49.730;10.088;2023-05-29T09:22:14;3.88;;;1.00;;
23250;SDS011;11794;49.730;10.088;2023-05-29T09:24:40;3.35;;;0.85;;
23250;SDS011;11794;49.730;10.088;2023-05-29T09:27:06;3.70;;;1.20;;
23250;SDS011;11794;49.730;10.088;2023-05-29T09:29:40;4.20;;;0.80;;
23250;SDS011;11794;49.730;10.088;2023-05-29T09:32:10;4.13;;;1.45;;
23250;SDS011;11794;49.730;10.088;2023-05-29T09:34:37;3.47;;;1.10;;
23250;SDS011;11794;49.730;10.088;2023-05-29T09:37:03;3.90;;;1.20;;
23250;SDS011;11794;49.730;10.088;2023-05-29T09:39:34;4.05;;;0.80;;
23250;SDS011;11794;49.730;10.088;2023-05-29T09:42:20;3.80;;;0.85;;
23250;SDS011;11794;49.730;10.088;2023-05-29T09:44:48;2.70;;;1.02;;
23250;SDS011;11794;49.730;10.088;2023-05-29T09:47:18;5.93;;;1.27;;
23250;SDS011;11794;49.730;10.088;2023-05-29T09:49:44;4.63;;;1.33;;
23250;SDS011;11794;49.730;10.088;2023-05-29T09:52:11;3.60;;;0.90;;
23250;SDS011;11794;49.730;10.088;2023-05-29T09:54:43;5.30;;;1.48;;
23250;SDS011;11794;49.730;10.088;2023-05-29T09:57:10;3.65;;;1.35;;
23250;SDS011;11794;49.730;10.088;2023-05-29T09:59:39;4.10;;;1.40;;
23250;SDS011;11794;49.730;10.088;2023-05-29T10:02:05;2.90;;;1.17;;
23250;SDS011;11794;49.730;10.088;2023-05-29T10:04:36;3.25;;;1.00;;
23250;SDS011;11794;49.730;10.088;2023-05-29T10:07:04;4.47;;;1.35;;
23250;SDS011;11794;49.730;10.088;2023-05-29T10:09:38;3.17;;;0.97;;
23250;SDS011;11794;49.730;10.088;2023-05-29T10:12:11;3.63;;;0.90;;
23250;SDS011;11794;49.730;10.088;2023-05-29T10:14:38;2.35;;;0.70;;
23250;SDS011;11794;49.730;10.088;2023-05-29T10:17:06;4.47;;;1.10;;
23250;SDS011;11794;49.730;10.088;2023-05-29T10:19:33;3.33;;;1.20;;
23250;SDS011;11794;49.730;10.088;2023-05-29T10:22:01;3.13;;;1.08;;
23250;SDS011;11794;49.730;10.088;2023-05-29T10:24:29;3.92;;;1.05;;
23250;SDS011;11794;49.730;10.088;2023-05-29T10:26:56;2.63;;;0.98;;
23250;SDS011;11794;49.730;10.088;2023-05-29T10:29:26;4.10;;;0.93;;
23250;SDS011;11794;49.730;10.088;2023-05-29T10:34:42;4.47;;;1.10;;
23250;SDS011;11794;49.730;10.088;2023-05-29T10:40:07;3.33;;;1.10;;
23250;SDS011;11794;49.730;10.088;2023-05-29T10:45:10;4.60;;;1.40;;
23250;SDS011;11794;49.730;10.088;2023-05-29T10:47:37;2.05;;;0.65;;
23250;SDS011;11794;49.730;10.088;2023-05-29T10:50:04;4.43;;;0.98;;
23250;SDS011;11794;49.730;10.088;2023-05-29T10:52:33;3.03;;;0.90;;
23250;SDS011;11794;49.730;10.088;2023-05-29T10:55:00;3.25;;;1.10;;
23250;SDS011;11794;49.730;10.088;2023-05-29T10:57:29;3.53;;;0.90;;
23250;SDS011;11794;49.730;10.088;2023-05-29T10:59:59;5.07;;;1.30;;
23250;SDS011;11794;49.730;10.088;2023-05-29T11:02:29;3.75;;;1.42;;
23250;SDS011;11794;49.730;10.088;2023-05-29T11:05:05;3.25;;;1.33;;
23250;SDS011;11794;49.730;10.088;2023-05-29T11:07:51;4.53;;;1.05;;
23250;SDS011;11794;49.730;10.088;2023-05-29T11:13:24;2.50;;;0.82;;
23250;SDS011;11794;49.730;10.088;2023-05-29T11:18:45;3.93;;;1.20;;
23250;SDS011;11794;49.730;10.088;2023-05-29T11:26:50;2.97;;;0.90;;
23250;SDS011;11794;49.730;10.088;2023-05-29T11:29:20;3.35;;;1.10;;
23250;SDS011;11794;49.730;10.088;2023-05-29T11:32:12;4.07;;;1.52;;
23250;SDS011;11794;49.730;10.088;2023-05-29T11:34:40;3.15;;;1.10;;
23250;SDS011;11794;49.730;10.088;2023-05-29T11:37:06;3.55;;;1.13;;
23250;SDS011;11794;49.730;10.088;2023-05-29T11:39:35;5.57;;;1.53;;
23250;SDS011;11794;49.730;10.088;2023-05-29T11:42:01;5.72;;;1.45;;
23250;SDS011;11794;49.730;10.088;2023-05-29T11:44:27;3.30;;;1.08;;
23250;SDS011;11794;49.730;10.088;2023-05-29T11:47:03;3.63;;;1.55;;
23250;SDS011;11794;49.730;10.088;2023-05-29T11:49:30;3.65;;;1.20;;
23250;SDS011;11794;49.730;10.088;2023-05-29T11:52:11;3.90;;;1.20;;
23250;SDS011;11794;49.730;10.088;2023-05-29T11:54:39;3.37;;;1.23;;
23250;SDS011;11794;49.730;10.088;2023-05-29T11:57:06;3.05;;;1.17;;
23250;SDS011;11794;49.730;10.088;2023-05-29T11:59:32;3.42;;;1.25;;
23250;SDS011;11794;49.730;10.088;2023-05-29T12:01:59;3.92;;;1.38;;
23250;SDS011;11794;49.730;10.088;2023-05-29T12:04:28;4.68;;;1.45;;
23250;SDS011;11794;49.730;10.088;2023-05-29T12:06:53;3.85;;;1.50;;
23250;SDS011;11794;49.730;10.088;2023-05-29T12:09:23;3.57;;;1.57;;
23250;SDS011;11794;49.730;10.088;2023-05-29T12:11:53;6.03;;;1.30;;
23250;SDS011;11794;49.730;10.088;2023-05-29T12:14:28;3.28;;;1.00;;
23250;SDS011;11794;49.730;10.088;2023-05-29T12:16:54;3.05;;;1.27;;
23250;SDS011;11794;49.730;10.088;2023-05-29T12:19:20;5.57;;;1.43;;
23250;SDS011;11794;49.730;10.088;2023-05-29T12:21:45;4.63;;;1.60;;
23250;SDS011;11794;49.730;10.088;2023-05-29T12:24:11;4.27;;;1.60;;
23250;SDS011;11794;49.730;10.088;2023-05-29T12:26:36;3.55;;;1.33;;
23250;SDS011;11794;49.730;10.088;2023-05-29T12:29:02;5.07;;;1.30;;
23250;SDS011;11794;49.730;10.088;2023-05-29T12:31:30;3.80;;;1.25;;
23250;SDS011;11794;49.730;10.088;2023-05-29T12:34:07;4.28;;;1.52;;
23250;SDS011;11794;49.730;10.088;2023-05-29T12:36:34;4.65;;;1.40;;
23250;SDS011;11794;49.730;10.088;2023-05-29T12:38:59;5.10;;;1.17;;
23250;SDS011;11794;49.730;10.088;2023-05-29T12:43:58;5.97;;;1.92;;
23250;SDS011;11794;49.730;10.088;2023-05-29T12:46:26;3.17;;;1.35;;
23250;SDS011;11794;49.730;10.088;2023-05-29T12:48:52;4.30;;;2.05;;
23250;SDS011;11794;49.730;10.088;2023-05-29T12:51:22;4.10;;;1.35;;
23250;SDS011;11794;49.730;10.088;2023-05-29T12:53:49;3.17;;;1.25;;
23250;SDS011;11794;49.730;10.088;2023-05-29T12:56:15;5.03;;;1.97;;
23250;SDS011;11794;49.730;10.088;2023-05-29T12:58:40;3.60;;;1.33;;
23250;SDS011;11794;49.730;10.088;2023-05-29T13:01:11;3.67;;;1.33;;
23250;SDS011;11794;49.730;10.088;2023-05-29T13:03:39;3.83;;;1.63;;
23250;SDS011;11794;49.730;10.088;2023-05-29T13:06:05;3.90;;;1.23;;
23250;SDS011;11794;49.730;10.088;2023-05-29T13:08:30;4.67;;;1.73;;
23250;SDS011;11794;49.730;10.088;2023-05-29T13:10:56;3.83;;;1.30;;
23250;SDS011;11794;49.730;10.088;2023-05-29T13:13:22;3.60;;;1.40;;
23250;SDS011;11794;49.730;10.088;2023-05-29T13:15:47;3.63;;;1.50;;
23250;SDS011;11794;49.730;10.088;2023-05-29T13:18:13;4.40;;;1.47;;
23250;SDS011;11794;49.730;10.088;2023-05-29T13:20:38;4.13;;;1.50;;
23250;SDS011;11794;49.730;10.088;2023-05-29T13:23:03;5.85;;;1.73;;
23250;SDS011;11794;49.730;10.088;2023-05-29T13:25:29;3.80;;;1.30;;
23250;SDS011;11794;49.730;10.088;2023-05-29T13:27:55;8.43;;;1.40;;
23250;SDS011;11794;49.730;10.088;2023-05-29T13:30:21;4.97;;;1.92;;
23250;SDS011;11794;49.730;10.088;2023-05-29T13:32:47;3.88;;;1.45;;
23250;SDS011;11794;49.730;10.088;2023-05-29T13:35:13;3.50;;;1.40;;
23250;SDS011;11794;49.730;10.088;2023-05-29T13:37:38;4.38;;;1.50;;
23250;SDS011;11794;49.730;10.088;2023-05-29T13:40:04;3.58;;;1.27;;
23250;SDS011;11794;49.730;10.088;2023-05-29T13:42:31;3.78;;;1.50;;
23250;SDS011;11794;49.730;10.088;2023-05-29T13:44:57;3.60;;;1.27;;
23250;SDS011;11794;49.730;10.088;2023-05-29T13:47:23;4.03;;;1.33;;
23250;SDS011;11794;49.730;10.088;2023-05-29T13:49:49;3.63;;;1.42;;
23250;SDS011;11794;49.730;10.088;2023-05-29T13:52:15;4.13;;;1.20;;
23250;SDS011;11794;49.730;10.088;2023-05-29T13:54:41;5.10;;;1.45;;
23250;SDS011;11794;49.730;10.088;2023-05-29T13:57:07;4.85;;;1.63;;
23250;SDS011;11794;49.730;10.088;2023-05-29T13:59:33;3.73;;;1.23;;
23250;SDS011;11794;49.730;10.088;2023-05-29T14:01:59;3.17;;;1.17;;
23250;SDS011;11794;49.730;10.088;2023-05-29T14:04:25;4.22;;;1.33;;
23250;SDS011;11794;49.730;10.088;2023-05-29T14:06:51;5.10;;;1.97;;
23250;SDS011;11794;49.730;10.088;2023-05-29T14:09:17;4.07;;;1.38;;
23250;SDS011;11794;49.730;10.088;2023-05-29T14:11:47;5.22;;;1.48;;
23250;SDS011;11794;49.730;10.088;2023-05-29T14:14:13;4.25;;;1.23;;
23250;SDS011;11794;49.730;10.088;2023-05-29T14:16:38;4.23;;;1.40;;
23250;SDS011;11794;49.730;10.088;2023-05-29T14:19:04;3.00;;;1.00;;
23250;SDS011;11794;49.730;10.088;2023-05-29T14:21:29;3.85;;;1.33;;
23250;SDS011;11794;49.730;10.088;2023-05-29T14:23:55;3.53;;;1.15;;
23250;SDS011;11794;49.730;10.088;2023-05-29T14:26:20;4.07;;;1.47;;
23250;SDS011;11794;49.730;10.088;2023-05-29T14:28:46;2.43;;;0.93;;
23250;SDS011;11794;49.730;10.088;2023-05-29T14:31:12;3.55;;;1.30;;
23250;SDS011;11794;49.730;10.088;2023-05-29T14:33:37;1.87;;;0.70;;
23250;SDS011;11794;49.730;10.088;2023-05-29T14:36:03;3.20;;;0.93;;
23250;SDS011;11794;49.730;10.088;2023-05-29T14:38:28;3.70;;;1.40;;
23250;SDS011;11794;49.730;10.088;2023-05-29T14:40:54;3.67;;;1.25;;
23250;SDS011;11794;49.730;10.088;2023-05-29T14:43:20;3.83;;;1.47;;
23250;SDS011;11794;49.730;10.088;2023-05-29T14:45:45;3.97;;;1.20;;
23250;SDS011;11794;49.730;10.088;2023-05-29T14:48:11;3.47;;;1.10;;
23250;SDS011;11794;49.730;10.088;2023-05-29T14:50:36;2.70;;;1.00;;
23250;SDS011;11794;49.730;10.088;2023-05-29T14:53:02;3.85;;;1.30;;
23250;SDS011;11794;49.730;10.088;2023-05-29T14:55:28;3.67;;;1.50;;
23250;SDS011;11794;49.730;10.088;2023-05-29T14:57:57;4.05;;;1.25;;
23250;SDS011;11794;49.730;10.088;2023-05-29T15:00:22;2.97;;;0.87;;
23250;SDS011;11794;49.730;10.088;2023-05-29T15:02:48;3.92;;;1.35;;
23250;SDS011;11794;49.730;10.088;2023-05-29T15:05:13;3.53;;;1.13;;
23250;SDS011;11794;49.730;10.088;2023-05-29T15:07:39;3.27;;;0.97;;